KNA8275 ZPPP-ZGHA
Flight info
| Callsign | KNA8275 |
|---|---|
| Flight time | 1h 37m |
| Altitude | 35100 |
| Route | NODIB1Y NODIB W137 LPS A581 NOMUK W194 LLC W138 RUKLI RUK2W |
| Aircraft | B738/M-SDE2E3FGHIRWXY/LB1 |
Departure
| Time | 2026-04-27 09:40 |
|---|---|
| Airport | Kunming Changshui International Airport (ZPPP) |
Arrival
| Time | 2026-04-27 11:18 |
|---|---|
| Airport | Changsha Huanghua International Airport (ZGHA) |
| Time | Latitude | Longitude | Altitude | Speed | Heading |
|---|---|---|---|---|---|
| 2026-04-27 09:00 | 25.10343 | 102.92908 | 6915 ft | 0 kts | 107° |
| 2026-04-27 09:28 | 25.10344 | 102.92907 | 6915 ft | 1 kts | 108° |
| 2026-04-27 09:28 | 25.10348 | 102.92892 | 6915 ft | 2 kts | 107° |
| 2026-04-27 09:28 | 25.10353 | 102.92876 | 6915 ft | 2 kts | 107° |
| 2026-04-27 09:28 | 25.10357 | 102.92860 | 6915 ft | 2 kts | 107° |
| 2026-04-27 09:29 | 25.10360 | 102.92849 | 6915 ft | 2 kts | 107° |
| 2026-04-27 09:29 | 25.10361 | 102.92833 | 6915 ft | 2 kts | 71° |
| 2026-04-27 09:29 | 25.10353 | 102.92819 | 6915 ft | 2 kts | 41° |
| 2026-04-27 09:29 | 25.10346 | 102.92814 | 6915 ft | 1 kts | 23° |
| 2026-04-27 09:30 | 25.10341 | 102.92812 | 6915 ft | 0 kts | 24° |
| 2026-04-27 09:31 | 25.10342 | 102.92812 | 6915 ft | 0 kts | 24° |
| 2026-04-27 09:31 | 25.10348 | 102.92815 | 6915 ft | 1 kts | 24° |
| 2026-04-27 09:32 | 25.10364 | 102.92822 | 6915 ft | 5 kts | 20° |
| 2026-04-27 09:32 | 25.10427 | 102.92823 | 6915 ft | 12 kts | 338° |
| 2026-04-27 09:32 | 25.10525 | 102.92776 | 6915 ft | 16 kts | 330° |
| 2026-04-27 09:32 | 25.10635 | 102.92715 | 6915 ft | 21 kts | 333° |
| 2026-04-27 09:33 | 25.10767 | 102.92751 | 6915 ft | 22 kts | 38° |
| 2026-04-27 09:33 | 25.10907 | 102.92875 | 6915 ft | 28 kts | 40° |
| 2026-04-27 09:33 | 25.11076 | 102.93025 | 6915 ft | 29 kts | 56° |
| 2026-04-27 09:33 | 25.11011 | 102.93121 | 6915 ft | 16 kts | 130° |
| 2026-04-27 09:34 | 25.10937 | 102.93221 | 6915 ft | 17 kts | 129° |
| 2026-04-27 09:34 | 25.10858 | 102.93328 | 6915 ft | 18 kts | 128° |
| 2026-04-27 09:34 | 25.10778 | 102.93444 | 6915 ft | 19 kts | 124° |
| 2026-04-27 09:34 | 25.10691 | 102.93565 | 6915 ft | 20 kts | 130° |
| 2026-04-27 09:35 | 25.10601 | 102.93694 | 6915 ft | 21 kts | 126° |
| 2026-04-27 09:35 | 25.10523 | 102.93816 | 6915 ft | 17 kts | 81° |
| 2026-04-27 09:35 | 25.10611 | 102.93912 | 6915 ft | 18 kts | 36° |
| 2026-04-27 09:35 | 25.10719 | 102.94005 | 6915 ft | 20 kts | 38° |
| 2026-04-27 09:36 | 25.10834 | 102.94105 | 6915 ft | 21 kts | 38° |
| 2026-04-27 09:36 | 25.10956 | 102.94211 | 6915 ft | 22 kts | 39° |
| 2026-04-27 09:36 | 25.11006 | 102.94308 | 6915 ft | 12 kts | 115° |
| 2026-04-27 09:36 | 25.10954 | 102.94393 | 6915 ft | 14 kts | 117° |
| 2026-04-27 09:37 | 25.11012 | 102.94482 | 6915 ft | 17 kts | 38° |
| 2026-04-27 09:37 | 25.11123 | 102.94577 | 6915 ft | 23 kts | 37° |
| 2026-04-27 09:37 | 25.11268 | 102.94706 | 6915 ft | 29 kts | 38° |
| 2026-04-27 09:37 | 25.11444 | 102.94860 | 6914 ft | 35 kts | 37° |
| 2026-04-27 09:38 | 25.11649 | 102.95036 | 6914 ft | 32 kts | 39° |
| 2026-04-27 09:38 | 25.11773 | 102.95144 | 6914 ft | 21 kts | 38° |
| 2026-04-27 09:38 | 25.11857 | 102.95217 | 6914 ft | 14 kts | 38° |
| 2026-04-27 09:38 | 25.11935 | 102.95296 | 6914 ft | 14 kts | 74° |
| 2026-04-27 09:39 | 25.11883 | 102.95386 | 6914 ft | 14 kts | 127° |
| 2026-04-27 09:39 | 25.11823 | 102.95482 | 6914 ft | 15 kts | 129° |
| 2026-04-27 09:39 | 25.11735 | 102.95478 | 6914 ft | 15 kts | 214° |
| 2026-04-27 09:39 | 25.11622 | 102.95384 | 6914 ft | 42 kts | 218° |
| 2026-04-27 09:40 | 25.11205 | 102.95019 | 6915 ft | 109 kts | 219° |
| 2026-04-27 09:40 | 25.10450 | 102.94364 | 6915 ft | 166 kts | 218° |
| 2026-04-27 09:40 | 25.09442 | 102.93475 | 7210 ft | 190 kts | 221° |
| 2026-04-27 09:40 | 25.08429 | 102.92544 | 7944 ft | 196 kts | 219° |
| 2026-04-27 09:41 | 25.07309 | 102.91602 | 8546 ft | 212 kts | 218° |
| 2026-04-27 09:41 | 25.06099 | 102.90582 | 9217 ft | 224 kts | 219° |
| 2026-04-27 09:41 | 25.04865 | 102.89519 | 9786 ft | 234 kts | 220° |
| 2026-04-27 09:41 | 25.03549 | 102.88373 | 10195 ft | 249 kts | 220° |
| 2026-04-27 09:42 | 25.02146 | 102.87151 | 10708 ft | 260 kts | 220° |
| 2026-04-27 09:42 | 25.00729 | 102.85921 | 11396 ft | 263 kts | 220° |
| 2026-04-27 09:42 | 24.99289 | 102.84672 | 12023 ft | 267 kts | 220° |
| 2026-04-27 09:42 | 24.97807 | 102.83403 | 12680 ft | 270 kts | 218° |
| 2026-04-27 09:43 | 24.96184 | 102.82370 | 13278 ft | 278 kts | 203° |
| 2026-04-27 09:43 | 24.94244 | 102.82036 | 13923 ft | 286 kts | 180° |
| 2026-04-27 09:43 | 24.92298 | 102.82523 | 14584 ft | 293 kts | 162° |
| 2026-04-27 09:43 | 24.90463 | 102.83564 | 15108 ft | 306 kts | 147° |
| 2026-04-27 09:44 | 24.88953 | 102.85298 | 15786 ft | 314 kts | 127° |
| 2026-04-27 09:44 | 24.87808 | 102.87297 | 16543 ft | 315 kts | 123° |
| 2026-04-27 09:44 | 24.86692 | 102.89409 | 17123 ft | 321 kts | 122° |
| 2026-04-27 09:44 | 24.85571 | 102.91525 | 17780 ft | 323 kts | 122° |
| 2026-04-27 09:45 | 24.84505 | 102.93742 | 18211 ft | 336 kts | 117° |
| 2026-04-27 09:45 | 24.83645 | 102.96188 | 18554 ft | 352 kts | 108° |
| 2026-04-27 09:45 | 24.83080 | 102.98873 | 18881 ft | 367 kts | 100° |
| 2026-04-27 09:45 | 24.82842 | 103.01695 | 19194 ft | 382 kts | 93° |
| 2026-04-27 09:46 | 24.82882 | 103.04709 | 19471 ft | 397 kts | 87° |
| 2026-04-27 09:46 | 24.83271 | 103.07757 | 19709 ft | 413 kts | 77° |
| 2026-04-27 09:46 | 24.84156 | 103.10764 | 19987 ft | 425 kts | 66° |
| 2026-04-27 09:46 | 24.85574 | 103.13697 | 20215 ft | 438 kts | 56° |
| 2026-04-27 09:47 | 24.87451 | 103.16384 | 20685 ft | 444 kts | 47° |
| 2026-04-27 09:47 | 24.89563 | 103.18806 | 21297 ft | 445 kts | 41° |
| 2026-04-27 09:47 | 24.92008 | 103.20944 | 21845 ft | 447 kts | 32° |
| 2026-04-27 09:47 | 24.94722 | 103.22641 | 22369 ft | 449 kts | 24° |
| 2026-04-27 09:48 | 24.97586 | 103.23992 | 22895 ft | 451 kts | 17° |
| 2026-04-27 09:48 | 25.00620 | 103.24847 | 23464 ft | 451 kts | 7° |
| 2026-04-27 09:48 | 25.03714 | 103.25322 | 23958 ft | 455 kts | 7° |
| 2026-04-27 09:48 | 25.06815 | 103.26186 | 24517 ft | 460 kts | 17° |
| 2026-04-27 09:49 | 25.09793 | 103.27555 | 25034 ft | 465 kts | 24° |
| 2026-04-27 09:49 | 25.12658 | 103.29278 | 25531 ft | 470 kts | 29° |
| 2026-04-27 09:49 | 25.15429 | 103.31196 | 26088 ft | 472 kts | 32° |
| 2026-04-27 09:49 | 25.18171 | 103.33233 | 26583 ft | 475 kts | 33° |
| 2026-04-27 09:50 | 25.20882 | 103.35315 | 27061 ft | 479 kts | 34° |
| 2026-04-27 09:50 | 25.23636 | 103.37459 | 27517 ft | 482 kts | 34° |
| 2026-04-27 09:50 | 25.26345 | 103.39578 | 28049 ft | 484 kts | 34° |
| 2026-04-27 09:50 | 25.29123 | 103.41752 | 28410 ft | 489 kts | 34° |
| 2026-04-27 09:51 | 25.31921 | 103.43938 | 28940 ft | 490 kts | 34° |
| 2026-04-27 09:51 | 25.34713 | 103.46116 | 29426 ft | 492 kts | 33° |
| 2026-04-27 09:51 | 25.37470 | 103.48261 | 30176 ft | 487 kts | 34° |
| 2026-04-27 09:51 | 25.40234 | 103.50411 | 30913 ft | 482 kts | 34° |
| 2026-04-27 09:52 | 25.42951 | 103.52522 | 31545 ft | 480 kts | 33° |
| 2026-04-27 09:52 | 25.45708 | 103.54662 | 32043 ft | 480 kts | 34° |
| 2026-04-27 09:52 | 25.48386 | 103.56820 | 32624 ft | 477 kts | 37° |
| 2026-04-27 09:52 | 25.50923 | 103.59178 | 33194 ft | 475 kts | 41° |
| 2026-04-27 09:53 | 25.53273 | 103.61757 | 33715 ft | 475 kts | 46° |
| 2026-04-27 09:53 | 25.55389 | 103.64543 | 34254 ft | 473 kts | 51° |
| 2026-04-27 09:53 | 25.57332 | 103.67475 | 34726 ft | 472 kts | 54° |
| 2026-04-27 09:53 | 25.59173 | 103.70488 | 35137 ft | 472 kts | 56° |
| 2026-04-27 09:54 | 25.60971 | 103.73559 | 35205 ft | 476 kts | 57° |
| 2026-04-27 09:54 | 25.64521 | 103.79768 | 35214 ft | 471 kts | 57° |
| 2026-04-27 09:55 | 25.68057 | 103.85968 | 35220 ft | 473 kts | 57° |
| 2026-04-27 09:55 | 25.73371 | 103.95221 | 35221 ft | 473 kts | 56° |
| 2026-04-27 09:56 | 25.76898 | 104.01336 | 35221 ft | 472 kts | 56° |
| 2026-04-27 09:56 | 25.80444 | 104.07481 | 35207 ft | 472 kts | 56° |
| 2026-04-27 09:57 | 25.84000 | 104.13562 | 35198 ft | 472 kts | 56° |
| 2026-04-27 09:57 | 25.87597 | 104.19668 | 35184 ft | 471 kts | 56° |
| 2026-04-27 09:58 | 25.91184 | 104.25768 | 35179 ft | 472 kts | 56° |
| 2026-04-27 09:58 | 25.94760 | 104.31862 | 35171 ft | 472 kts | 56° |
| 2026-04-27 09:59 | 25.98325 | 104.37951 | 35160 ft | 472 kts | 56° |
| 2026-04-27 09:59 | 26.02007 | 104.44000 | 35165 ft | 472 kts | 52° |
| 2026-04-27 10:00 | 26.06449 | 104.49281 | 35156 ft | 469 kts | 40° |
| 2026-04-27 10:00 | 26.11434 | 104.53953 | 35147 ft | 470 kts | 37° |
| 2026-04-27 10:01 | 26.16548 | 104.58518 | 35143 ft | 471 kts | 37° |
| 2026-04-27 10:01 | 26.21635 | 104.63115 | 35137 ft | 470 kts | 38° |
| 2026-04-27 10:02 | 26.26701 | 104.67769 | 35144 ft | 471 kts | 38° |
| 2026-04-27 10:02 | 26.31747 | 104.72450 | 35143 ft | 471 kts | 38° |
| 2026-04-27 10:03 | 26.36784 | 104.77144 | 35145 ft | 472 kts | 38° |
| 2026-04-27 10:03 | 26.41826 | 104.81852 | 35146 ft | 473 kts | 38° |
| 2026-04-27 10:04 | 26.46867 | 104.86567 | 35155 ft | 473 kts | 38° |
| 2026-04-27 10:04 | 26.51903 | 104.91283 | 35156 ft | 472 kts | 38° |
| 2026-04-27 10:05 | 26.56930 | 104.95995 | 35157 ft | 473 kts | 38° |
| 2026-04-27 10:05 | 26.61909 | 105.00833 | 35155 ft | 476 kts | 44° |
| 2026-04-27 10:06 | 26.65894 | 105.06773 | 35153 ft | 480 kts | 60° |
| 2026-04-27 10:06 | 26.68831 | 105.13464 | 35153 ft | 480 kts | 65° |
| 2026-04-27 10:07 | 26.71506 | 105.20297 | 35155 ft | 482 kts | 65° |
| 2026-04-27 10:07 | 26.74179 | 105.27182 | 35157 ft | 480 kts | 65° |
| 2026-04-27 10:08 | 26.76868 | 105.34030 | 35155 ft | 481 kts | 65° |
| 2026-04-27 10:08 | 26.79579 | 105.40875 | 35148 ft | 483 kts | 64° |
| 2026-04-27 10:09 | 26.82309 | 105.47736 | 35135 ft | 480 kts | 64° |
| 2026-04-27 10:09 | 26.85034 | 105.54582 | 35131 ft | 483 kts | 64° |
| 2026-04-27 10:10 | 26.87765 | 105.61446 | 35124 ft | 482 kts | 64° |
| 2026-04-27 10:10 | 26.90504 | 105.68347 | 35120 ft | 482 kts | 65° |
| 2026-04-27 10:11 | 26.93236 | 105.75234 | 35110 ft | 482 kts | 65° |
| 2026-04-27 10:11 | 26.95948 | 105.82081 | 35101 ft | 483 kts | 64° |
| 2026-04-27 10:12 | 26.98647 | 105.88911 | 35091 ft | 482 kts | 64° |
| 2026-04-27 10:12 | 27.01362 | 105.95798 | 35082 ft | 482 kts | 64° |
| 2026-04-27 10:13 | 27.04068 | 106.02666 | 35074 ft | 482 kts | 64° |
| 2026-04-27 10:13 | 27.06941 | 106.09418 | 35079 ft | 482 kts | 61° |
| 2026-04-27 10:14 | 27.10018 | 106.16050 | 35076 ft | 480 kts | 60° |
| 2026-04-27 10:14 | 27.13112 | 106.22668 | 35080 ft | 481 kts | 60° |
| 2026-04-27 10:15 | 27.16196 | 106.29336 | 35077 ft | 481 kts | 60° |
| 2026-04-27 10:15 | 27.19263 | 106.36030 | 35070 ft | 480 kts | 60° |
| 2026-04-27 10:16 | 27.22283 | 106.42654 | 35062 ft | 481 kts | 60° |
| 2026-04-27 10:16 | 27.25335 | 106.49369 | 35049 ft | 479 kts | 60° |
| 2026-04-27 10:17 | 27.28357 | 106.56036 | 35038 ft | 480 kts | 60° |
| 2026-04-27 10:17 | 27.31371 | 106.62708 | 35038 ft | 478 kts | 60° |
| 2026-04-27 10:18 | 27.34370 | 106.69346 | 35038 ft | 477 kts | 60° |
| 2026-04-27 10:18 | 27.37390 | 106.76039 | 35036 ft | 480 kts | 60° |
| 2026-04-27 10:19 | 27.40391 | 106.82722 | 35036 ft | 476 kts | 60° |
| 2026-04-27 10:19 | 27.43370 | 106.89384 | 35036 ft | 476 kts | 60° |
| 2026-04-27 10:20 | 27.46341 | 106.96044 | 35037 ft | 475 kts | 60° |
| 2026-04-27 10:20 | 27.49330 | 107.02721 | 35039 ft | 477 kts | 60° |
| 2026-04-27 10:21 | 27.52341 | 107.09383 | 35043 ft | 476 kts | 60° |
| 2026-04-27 10:21 | 27.55330 | 107.15991 | 35043 ft | 478 kts | 60° |
| 2026-04-27 10:22 | 27.58334 | 107.22643 | 35039 ft | 478 kts | 60° |
| 2026-04-27 10:22 | 27.61358 | 107.29340 | 35039 ft | 479 kts | 60° |
| 2026-04-27 10:23 | 27.64367 | 107.36020 | 35032 ft | 479 kts | 60° |
| 2026-04-27 10:23 | 27.67360 | 107.42683 | 35027 ft | 477 kts | 60° |
| 2026-04-27 10:24 | 27.70353 | 107.49358 | 35019 ft | 477 kts | 60° |
| 2026-04-27 10:24 | 27.73361 | 107.56084 | 35023 ft | 477 kts | 60° |
| 2026-04-27 10:25 | 27.76334 | 107.62730 | 35023 ft | 477 kts | 60° |
| 2026-04-27 10:25 | 27.79321 | 107.69418 | 35026 ft | 478 kts | 60° |
| 2026-04-27 10:26 | 27.82314 | 107.76126 | 35037 ft | 476 kts | 60° |
| 2026-04-27 10:26 | 27.85309 | 107.82783 | 35024 ft | 478 kts | 60° |
| 2026-04-27 10:27 | 27.88349 | 107.89431 | 35018 ft | 477 kts | 60° |
| 2026-04-27 10:27 | 27.91410 | 107.96111 | 35009 ft | 476 kts | 60° |
| 2026-04-27 10:28 | 27.94452 | 108.02765 | 35008 ft | 478 kts | 60° |
| 2026-04-27 10:28 | 27.97488 | 108.09425 | 35005 ft | 477 kts | 60° |
| 2026-04-27 10:29 | 28.00502 | 108.16067 | 35007 ft | 476 kts | 60° |
| 2026-04-27 10:29 | 28.03524 | 108.22726 | 34997 ft | 477 kts | 60° |
| 2026-04-27 10:30 | 28.06564 | 108.29443 | 34994 ft | 476 kts | 60° |
| 2026-04-27 10:30 | 28.09561 | 108.36081 | 34994 ft | 475 kts | 60° |
| 2026-04-27 10:31 | 28.12576 | 108.42774 | 34994 ft | 475 kts | 60° |
| 2026-04-27 10:31 | 28.15584 | 108.49462 | 34993 ft | 475 kts | 60° |
| 2026-04-27 10:32 | 28.18586 | 108.56132 | 35002 ft | 475 kts | 60° |
| 2026-04-27 10:32 | 28.21580 | 108.62798 | 35009 ft | 477 kts | 60° |
| 2026-04-27 10:33 | 28.24584 | 108.69503 | 35022 ft | 474 kts | 61° |
| 2026-04-27 10:33 | 28.27591 | 108.76230 | 35028 ft | 475 kts | 60° |
| 2026-04-27 10:34 | 28.30567 | 108.82893 | 35018 ft | 474 kts | 60° |
| 2026-04-27 10:34 | 28.33569 | 108.89617 | 35016 ft | 475 kts | 61° |
| 2026-04-27 10:35 | 28.36546 | 108.96306 | 35002 ft | 475 kts | 60° |
| 2026-04-27 10:35 | 28.39525 | 109.03011 | 34993 ft | 474 kts | 61° |
| 2026-04-27 10:36 | 28.42488 | 109.09689 | 34991 ft | 475 kts | 61° |
| 2026-04-27 10:36 | 28.45458 | 109.16399 | 34987 ft | 475 kts | 60° |
| 2026-04-27 10:37 | 28.48424 | 109.23124 | 34984 ft | 475 kts | 61° |
| 2026-04-27 10:37 | 28.51365 | 109.29803 | 34982 ft | 474 kts | 61° |
| 2026-04-27 10:38 | 28.54307 | 109.36501 | 34986 ft | 474 kts | 61° |
| 2026-04-27 10:38 | 28.57259 | 109.43230 | 34991 ft | 475 kts | 61° |
| 2026-04-27 10:39 | 28.59999 | 109.50114 | 34990 ft | 476 kts | 66° |
| 2026-04-27 10:39 | 28.62376 | 109.57117 | 34987 ft | 477 kts | 67° |
| 2026-04-27 10:40 | 28.64704 | 109.64178 | 34982 ft | 477 kts | 67° |
| 2026-04-27 10:40 | 28.67078 | 109.71204 | 34985 ft | 476 kts | 66° |
| 2026-04-27 10:41 | 28.69566 | 109.78223 | 34985 ft | 477 kts | 65° |
| 2026-04-27 10:41 | 28.72067 | 109.85175 | 34992 ft | 477 kts | 66° |
| 2026-04-27 10:42 | 28.74577 | 109.92162 | 34994 ft | 475 kts | 65° |
| 2026-04-27 10:42 | 28.77088 | 109.99171 | 35005 ft | 476 kts | 66° |
| 2026-04-27 10:43 | 28.79572 | 110.06135 | 35003 ft | 476 kts | 66° |
| 2026-04-27 10:43 | 28.82058 | 110.13126 | 34998 ft | 477 kts | 66° |
| 2026-04-27 10:44 | 28.84546 | 110.20134 | 35001 ft | 476 kts | 66° |
| 2026-04-27 10:44 | 28.87036 | 110.27161 | 34999 ft | 477 kts | 66° |
| 2026-04-27 10:45 | 28.89513 | 110.34165 | 35002 ft | 479 kts | 66° |
| 2026-04-27 10:45 | 28.91993 | 110.41200 | 34998 ft | 479 kts | 66° |
| 2026-04-27 10:46 | 28.94467 | 110.48235 | 35005 ft | 478 kts | 66° |
| 2026-04-27 10:46 | 28.96938 | 110.55267 | 35004 ft | 479 kts | 66° |
| 2026-04-27 10:47 | 28.99407 | 110.62304 | 35003 ft | 478 kts | 66° |
| 2026-04-27 10:47 | 29.01658 | 110.69448 | 35001 ft | 481 kts | 75° |
| 2026-04-27 10:48 | 29.02164 | 110.73244 | 34999 ft | 483 kts | 88° |
| 2026-04-27 10:48 | 29.01995 | 110.77025 | 34998 ft | 482 kts | 98° |
| 2026-04-27 10:48 | 29.00718 | 110.84571 | 35005 ft | 482 kts | 103° |
| 2026-04-27 10:49 | 28.99179 | 110.92015 | 35019 ft | 480 kts | 104° |
| 2026-04-27 10:49 | 28.97635 | 110.99387 | 35022 ft | 482 kts | 104° |
| 2026-04-27 10:50 | 28.96102 | 111.06826 | 35016 ft | 479 kts | 104° |
| 2026-04-27 10:50 | 28.94587 | 111.14256 | 35016 ft | 483 kts | 103° |
| 2026-04-27 10:51 | 28.93078 | 111.21691 | 35008 ft | 481 kts | 103° |
| 2026-04-27 10:51 | 28.91565 | 111.29147 | 35001 ft | 481 kts | 104° |
| 2026-04-27 10:52 | 28.90057 | 111.36572 | 34991 ft | 482 kts | 104° |
| 2026-04-27 10:52 | 28.88550 | 111.43967 | 34986 ft | 480 kts | 104° |
| 2026-04-27 10:53 | 28.86199 | 111.55098 | 34986 ft | 481 kts | 107° |
| 2026-04-27 10:54 | 28.83363 | 111.61879 | 34985 ft | 475 kts | 130° |
| 2026-04-27 10:54 | 28.81110 | 111.64610 | 34990 ft | 471 kts | 141° |
| 2026-04-27 10:54 | 28.78531 | 111.66920 | 34989 ft | 469 kts | 147° |
| 2026-04-27 10:55 | 28.73147 | 111.71121 | 34986 ft | 467 kts | 150° |
| 2026-04-27 10:55 | 28.67740 | 111.75150 | 34982 ft | 464 kts | 150° |
| 2026-04-27 10:56 | 28.62321 | 111.79179 | 34980 ft | 465 kts | 150° |
| 2026-04-27 10:56 | 28.56907 | 111.83221 | 34979 ft | 463 kts | 150° |
| 2026-04-27 10:57 | 28.51503 | 111.87265 | 34980 ft | 465 kts | 150° |
| 2026-04-27 10:57 | 28.46117 | 111.91296 | 34982 ft | 463 kts | 150° |
| 2026-04-27 10:58 | 28.40739 | 111.95322 | 34844 ft | 459 kts | 150° |
| 2026-04-27 10:58 | 28.38066 | 111.97326 | 34334 ft | 454 kts | 150° |
| 2026-04-27 10:58 | 28.35440 | 111.99297 | 33376 ft | 459 kts | 149° |
| 2026-04-27 10:58 | 28.32738 | 112.01324 | 32052 ft | 472 kts | 149° |
| 2026-04-27 10:59 | 28.29994 | 112.03385 | 31163 ft | 474 kts | 150° |
| 2026-04-27 10:59 | 28.27260 | 112.05445 | 30657 ft | 467 kts | 149° |
| 2026-04-27 10:59 | 28.24564 | 112.07478 | 30102 ft | 463 kts | 149° |
| 2026-04-27 11:00 | 28.19241 | 112.11487 | 28878 ft | 456 kts | 149° |
| 2026-04-27 11:00 | 28.16603 | 112.13470 | 28259 ft | 454 kts | 149° |
| 2026-04-27 11:00 | 28.14000 | 112.15426 | 27640 ft | 451 kts | 149° |
| 2026-04-27 11:00 | 28.11373 | 112.17397 | 27012 ft | 449 kts | 149° |
| 2026-04-27 11:01 | 28.08852 | 112.19451 | 26390 ft | 449 kts | 144° |
| 2026-04-27 11:01 | 28.06559 | 112.21802 | 25769 ft | 450 kts | 136° |
| 2026-04-27 11:01 | 28.04535 | 112.24532 | 25187 ft | 448 kts | 129° |
| 2026-04-27 11:01 | 28.02728 | 112.27376 | 24581 ft | 447 kts | 126° |
| 2026-04-27 11:02 | 28.01016 | 112.30285 | 23955 ft | 446 kts | 124° |
| 2026-04-27 11:02 | 27.99583 | 112.33394 | 23340 ft | 446 kts | 112° |
| 2026-04-27 11:02 | 27.98719 | 112.36784 | 22714 ft | 446 kts | 101° |
| 2026-04-27 11:02 | 27.98304 | 112.40241 | 22087 ft | 445 kts | 96° |
| 2026-04-27 11:03 | 27.98026 | 112.43742 | 21454 ft | 444 kts | 95° |
| 2026-04-27 11:03 | 27.97802 | 112.47192 | 20820 ft | 443 kts | 94° |
| 2026-04-27 11:03 | 27.97596 | 112.50662 | 20179 ft | 441 kts | 94° |
| 2026-04-27 11:03 | 27.97396 | 112.54108 | 19530 ft | 440 kts | 94° |
| 2026-04-27 11:04 | 27.97197 | 112.57540 | 18889 ft | 438 kts | 94° |
| 2026-04-27 11:04 | 27.96996 | 112.60956 | 18239 ft | 436 kts | 94° |
| 2026-04-27 11:04 | 27.96793 | 112.64382 | 17578 ft | 434 kts | 94° |
| 2026-04-27 11:04 | 27.96590 | 112.67718 | 16928 ft | 423 kts | 95° |
| 2026-04-27 11:05 | 27.96390 | 112.70969 | 16330 ft | 408 kts | 95° |
| 2026-04-27 11:05 | 27.96192 | 112.74123 | 15741 ft | 395 kts | 95° |
| 2026-04-27 11:05 | 27.95999 | 112.77145 | 15194 ft | 385 kts | 95° |
| 2026-04-27 11:05 | 27.95803 | 112.80183 | 14600 ft | 383 kts | 95° |
| 2026-04-27 11:06 | 27.95609 | 112.83175 | 14023 ft | 382 kts | 95° |
| 2026-04-27 11:06 | 27.95526 | 112.86147 | 13445 ft | 381 kts | 89° |
| 2026-04-27 11:06 | 27.95939 | 112.89084 | 12861 ft | 381 kts | 71° |
| 2026-04-27 11:06 | 27.97239 | 112.91630 | 12315 ft | 376 kts | 46° |
| 2026-04-27 11:07 | 27.99295 | 112.93436 | 11768 ft | 370 kts | 28° |
| 2026-04-27 11:07 | 28.01550 | 112.94752 | 11250 ft | 366 kts | 24° |
| 2026-04-27 11:07 | 28.03850 | 112.96012 | 10736 ft | 362 kts | 24° |
| 2026-04-27 11:07 | 28.06089 | 112.97255 | 10375 ft | 354 kts | 25° |
| 2026-04-27 11:08 | 28.08252 | 112.98482 | 10237 ft | 340 kts | 26° |
| 2026-04-27 11:08 | 28.10303 | 112.99668 | 10122 ft | 327 kts | 26° |
| 2026-04-27 11:08 | 28.12304 | 113.00838 | 9813 ft | 320 kts | 27° |
| 2026-04-27 11:08 | 28.14213 | 113.02183 | 9358 ft | 320 kts | 37° |
| 2026-04-27 11:09 | 28.15854 | 113.03822 | 8960 ft | 319 kts | 45° |
| 2026-04-27 11:09 | 28.17374 | 113.05649 | 8568 ft | 316 kts | 49° |
| 2026-04-27 11:09 | 28.18842 | 113.07497 | 8178 ft | 313 kts | 49° |
| 2026-04-27 11:09 | 28.20311 | 113.09283 | 7786 ft | 311 kts | 45° |
| 2026-04-27 11:10 | 28.21998 | 113.10793 | 7399 ft | 310 kts | 27° |
| 2026-04-27 11:10 | 28.24049 | 113.11402 | 7024 ft | 305 kts | 1° |
| 2026-04-27 11:10 | 28.26179 | 113.11274 | 6614 ft | 302 kts | 351° |
| 2026-04-27 11:10 | 28.28247 | 113.10965 | 6180 ft | 302 kts | 351° |
| 2026-04-27 11:11 | 28.30358 | 113.10684 | 5821 ft | 299 kts | 353° |
| 2026-04-27 11:11 | 28.32379 | 113.10491 | 5718 ft | 287 kts | 355° |
| 2026-04-27 11:11 | 28.34342 | 113.10351 | 5638 ft | 274 kts | 356° |
| 2026-04-27 11:11 | 28.36219 | 113.10292 | 5555 ft | 262 kts | 3° |
| 2026-04-27 11:12 | 28.37956 | 113.10670 | 5471 ft | 250 kts | 27° |
| 2026-04-27 11:12 | 28.39232 | 113.11860 | 5388 ft | 228 kts | 60° |
| 2026-04-27 11:12 | 28.39841 | 113.13417 | 5325 ft | 208 kts | 80° |
| 2026-04-27 11:12 | 28.40090 | 113.14974 | 5284 ft | 193 kts | 90° |
| 2026-04-27 11:13 | 28.40154 | 113.16466 | 5225 ft | 191 kts | 95° |
| 2026-04-27 11:13 | 28.40170 | 113.18003 | 5012 ft | 195 kts | 96° |
| 2026-04-27 11:13 | 28.39992 | 113.19526 | 4469 ft | 200 kts | 117° |
| 2026-04-27 11:13 | 28.39086 | 113.20624 | 4006 ft | 189 kts | 160° |
| 2026-04-27 11:14 | 28.37867 | 113.20818 | 3949 ft | 174 kts | 181° |
| 2026-04-27 11:14 | 28.36660 | 113.20778 | 3958 ft | 171 kts | 186° |
| 2026-04-27 11:14 | 28.35510 | 113.20521 | 3936 ft | 164 kts | 189° |
| 2026-04-27 11:14 | 28.34352 | 113.20401 | 3546 ft | 171 kts | 174° |
| 2026-04-27 11:15 | 28.33175 | 113.20702 | 3050 ft | 171 kts | 161° |
| 2026-04-27 11:15 | 28.32046 | 113.21067 | 2603 ft | 169 kts | 168° |
| 2026-04-27 11:15 | 28.30885 | 113.21213 | 2143 ft | 165 kts | 175° |
| 2026-04-27 11:15 | 28.29759 | 113.21288 | 1939 ft | 161 kts | 175° |
| 2026-04-27 11:16 | 28.28661 | 113.21343 | 1760 ft | 156 kts | 176° |
| 2026-04-27 11:16 | 28.27551 | 113.21394 | 1528 ft | 160 kts | 176° |
| 2026-04-27 11:16 | 28.26433 | 113.21441 | 1191 ft | 162 kts | 177° |
| 2026-04-27 11:16 | 28.25300 | 113.21534 | 916 ft | 171 kts | 170° |
| 2026-04-27 11:17 | 28.24116 | 113.21666 | 735 ft | 167 kts | 178° |
| 2026-04-27 11:17 | 28.22994 | 113.21709 | 634 ft | 159 kts | 177° |
| 2026-04-27 11:17 | 28.21844 | 113.21796 | 493 ft | 169 kts | 175° |
| 2026-04-27 11:17 | 28.20710 | 113.21872 | 317 ft | 153 kts | 177° |
| 2026-04-27 11:18 | 28.19713 | 113.21923 | 226 ft | 127 kts | 174° |
| 2026-04-27 11:18 | 28.19051 | 113.21970 | 226 ft | 64 kts | 177° |
| 2026-04-27 11:18 | 28.18778 | 113.21971 | 226 ft | 14 kts | 189° |
| 2026-04-27 11:18 | 28.18740 | 113.21963 | 226 ft | 4 kts | 195° |
| 2026-04-27 11:19 | 28.18686 | 113.21943 | 226 ft | 11 kts | 205° |
| 2026-04-27 11:19 | 28.18601 | 113.21897 | 226 ft | 15 kts | 205° |
| 2026-04-27 11:19 | 28.18586 | 113.21786 | 226 ft | 17 kts | 283° |
| 2026-04-27 11:19 | 28.18641 | 113.21691 | 226 ft | 17 kts | 5° |
| 2026-04-27 11:20 | 28.18776 | 113.21687 | 226 ft | 21 kts | 357° |
| 2026-04-27 11:20 | 28.18933 | 113.21677 | 226 ft | 24 kts | 359° |
| 2026-04-27 11:20 | 28.19113 | 113.21666 | 226 ft | 27 kts | 356° |
| 2026-04-27 11:20 | 28.19276 | 113.21654 | 226 ft | 23 kts | 356° |
| 2026-04-27 11:21 | 28.19427 | 113.21656 | 226 ft | 11 kts | 5° |
| 2026-04-27 11:21 | 28.19473 | 113.21597 | 226 ft | 9 kts | 295° |
| 2026-04-27 11:21 | 28.19482 | 113.21577 | 226 ft | 2 kts | 298° |
| 2026-04-27 11:21 | 28.19484 | 113.21573 | 226 ft | 0 kts | 296° |